Time;durP1;ratioP1;P1;durP2;ratioP2;P2;SDS_P1;SDS_P2;PMS_P1;PMS_P2;Temp;Humidity;BMP_temperature;BMP_pressure;BME280_temperature;BME280_humidity;BME280_pressure;Samples;Min_cycle;Max_cycle;Signal;HPM_P1;HPM_P2
2022/05/11 00:05:37;;;;;;;4.97;2.30;;;;;;;18.42;29.65;100165.61;2164098;89;31511;-82
2022/05/11 00:09:17;;;;;;;10.20;3.02;;;;;;;18.36;29.84;100161.75;2124920;90;26207;-84
2022/05/11 00:13:11;;;;;;;3.80;2.42;;;;;;;18.30;29.94;100160.05;2129832;90;25736;-82
2022/05/11 00:16:59;;;;;;;6.22;2.40;;;;;;;18.27;30.01;100160.08;2125962;90;25731;-89
2022/05/11 00:20:23;;;;;;;4.62;2.40;;;;;;;18.20;30.19;100150.94;2129653;91;25641;-89
2022/05/11 00:24:05;;;;;;;2.35;1.85;;;;;;;18.14;30.25;100155.38;2126542;91;25751;-88
2022/05/11 00:28:01;;;;;;;8.08;2.60;;;;;;;18.13;30.43;100154.09;2130791;91;25891;-91
2022/05/11 00:31:31;;;;;;;6.97;2.50;;;;;;;18.07;30.55;100147.56;2126498;92;25828;-89
2022/05/11 00:35:12;;;;;;;4.00;2.45;;;;;;;18.04;30.69;100139.67;2148331;90;26098;-89
2022/05/11 00:38:41;;;;;;;6.00;3.30;;;;;;;17.99;30.78;100129.61;2078863;92;25931;-90
2022/05/11 00:42:06;;;;;;;5.83;2.35;;;;;;;17.93;30.91;100113.42;2079554;93;26207;-83
2022/05/11 00:59:21;;;;;;;3.70;2.60;;;;;;;17.84;31.42;100112.19;2133758;88;25665;-88
2022/05/11 01:02:44;;;;;;;4.62;3.33;;;;;;;17.81;31.48;100112.22;2090433;91;25934;-90
2022/05/11 01:06:37;;;;;;;3.35;2.50;;;;;;;17.78;31.59;100103.89;2083932;92;25941;-88
2022/05/11 01:10:18;;;;;;;;;;;;;;;;;;;;;
2022/05/11 01:13:51;;;;;;;2.92;2.20;;;;;;;17.76;31.72;100110.95;1920529;101;25999;-88
2022/05/11 01:17:24;;;;;;;3.97;2.73;;;;;;;17.77;31.73;100111.37;1912479;102;26145;-89
2022/05/11 01:21:07;;;;;;;3.50;2.40;;;;;;;17.76;31.78;100111.37;1901391;102;25760;-89
2022/05/11 01:24:50;;;;;;;14.65;3.58;;;;;;;17.75;31.86;100114.46;1920327;100;25961;-87
2022/05/11 01:28:21;;;;;;;9.63;2.80;;;;;;;17.76;31.88;100117.97;1961191;100;25762;-88
2022/05/11 01:31:50;;;;;;;4.87;2.85;;;;;;;17.74;32.07;100114.01;1932331;97;25881;-83
2022/05/11 01:35:56;;;;;;;12.47;2.83;;;;;;;17.77;32.11;100113.14;1976804;98;31973;-87
2022/05/11 01:44:00;;;;;;;5.85;2.60;;;;;;;17.78;32.16;100099.94;1961184;98;25871;-86
2022/05/11 01:47:35;;;;;;;5.92;2.55;;;;;;;17.76;32.32;100095.14;2011896;96;26033;-90
2022/05/11 01:51:08;;;;;;;5.37;2.70;;;;;;;17.71;32.40;100083.72;2045908;93;26244;-90
2022/05/11 01:54:34;;;;;;;6.00;2.62;;;;;;;17.66;32.46;100074.55;2050535;94;25992;-86
2022/05/11 01:58:12;;;;;;;5.50;2.60;;;;;;;17.64;32.58;100074.13;2054104;94;25981;-88
2022/05/11 02:01:48;;;;;;;4.78;2.62;;;;;;;17.61;32.68;100074.16;2059735;94;25756;-91
2022/05/11 02:09:31;;;;;;;7.08;2.95;;;;;;;17.53;32.88;100059.74;2248428;85;25766;-90
2022/05/11 02:13:02;;;;;;;8.88;3.00;;;;;;;17.49;32.99;100049.26;2246196;85;25686;-88
2022/05/11 02:16:32;;;;;;;5.25;2.92;;;;;;;17.43;33.09;100040.95;2258466;85;25687;-89
2022/05/11 02:19:53;;;;;;;3.50;2.17;;;;;;;17.40;33.22;100035.72;2233379;85;26027;-85
2022/05/11 02:23:30;;;;;;;6.35;2.50;;;;;;;17.36;33.31;100027.42;2251161;85;31130;-85
2022/05/11 02:31:32;;;;;;;3.87;2.58;;;;;;;17.32;33.51;100009.45;2253312;85;25939;-84
2022/05/11 02:35:33;;;;;;;4.42;2.87;;;;;;;17.27;33.60;100017.83;2202306;86;25697;-89
2022/05/11 02:39:01;;;;;;;6.78;3.92;;;;;;;17.24;33.70;100012.58;2239442;86;26211;-88
2022/05/11 02:42:34;;;;;;;6.42;2.60;;;;;;;17.25;33.73;100009.09;2264721;85;25986;-85
2022/05/11 02:46:12;;;;;;;8.60;3.12;;;;;;;17.27;33.80;100008.61;2218827;85;26240;-90
2022/05/11 02:49:51;;;;;;;12.18;3.00;;;;;;;17.26;33.85;100000.73;2193217;88;25851;-89
2022/05/11 02:53:49;;;;;;;5.67;3.50;;;;;;;17.29;33.97;100008.61;2101329;90;25904;-91
2022/05/11 02:57:15;;;;;;;6.80;3.50;;;;;;;17.28;33.91;100014.75;2113300;91;26475;-88
2022/05/11 03:01:08;;;;;;;5.83;2.55;;;;;;;17.28;34.01;100010.79;2108097;91;25870;-88
2022/05/11 03:04:46;;;;;;;7.00;2.85;;;;;;;17.27;34.07;100014.33;2117608;91;25722;-90
2022/05/11 03:08:23;;;;;;;8.95;2.87;;;;;;;17.30;34.21;100011.21;2108544;91;25749;-88
2022/05/11 03:12:26;;;;;;;7.83;3.15;;;;;;;17.28;34.16;100006.84;2116156;90;25957;-90
2022/05/11 03:15:48;;;;;;;3.20;2.55;;;;;;;17.25;34.26;99999.00;2117409;90;25725;-89
2022/05/11 03:19:13;;;;;;;6.95;2.75;;;;;;;17.23;34.41;99997.67;2200683;89;26387;-89
2022/05/11 03:22:52;;;;;;;5.80;3.00;;;;;;;17.22;34.44;99994.63;2117021;92;25775;-88
2022/05/11 03:26:22;;;;;;;11.88;2.92;;;;;;;17.21;34.46;99987.59;2100165;90;25700;-89
2022/05/11 03:29:45;;;;;;;8.83;2.50;;;;;;;17.22;34.48;99981.45;2143538;90;25825;-90
2022/05/11 03:37:31;;;;;;;6.37;3.02;;;;;;;17.19;34.65;99972.26;2168260;88;25312;-90
2022/05/11 03:41:02;;;;;;;7.95;3.42;;;;;;;17.21;34.81;99979.27;2168716;90;25774;-88
2022/05/11 03:44:29;;;;;;;8.23;2.42;;;;;;;17.22;34.70;99978.81;2167853;90;25597;-85
2022/05/11 03:48:19;;;;;;;4.58;3.08;;;;;;;17.23;34.83;99972.65;2149026;90;30019;-83
2022/05/11 03:51:51;;;;;;;4.08;2.77;;;;;;;17.23;34.94;99968.70;2166021;89;26082;-88
2022/05/11 03:55:33;;;;;;;4.35;3.40;;;;;;;17.25;35.02;99975.28;2115066;91;25888;-84
2022/05/11 03:59:40;;;;;;;7.87;3.15;;;;;;;17.25;35.08;99976.60;2130198;89;25881;-84
2022/05/11 04:03:06;;;;;;;4.95;3.50;;;;;;;17.26;35.10;99971.30;2176343;88;25869;-88
2022/05/11 04:06:43;;;;;;;5.28;3.58;;;;;;;17.30;35.08;99969.51;2192740;88;32346;-88
2022/05/11 04:10:33;;;;;;;7.72;3.30;;;;;;;17.33;35.14;99974.30;2179232;87;26046;-89
2022/05/11 04:14:00;;;;;;;3.58;2.62;;;;;;;17.37;35.26;99968.55;2179454;87;25803;-89
2022/05/11 04:17:35;;;;;;;4.28;2.87;;;;;;;17.44;35.14;99970.23;2192305;87;25958;-86
2022/05/11 04:21:08;;;;;;;10.78;3.08;;;;;;;17.54;35.30;99972.31;2164835;88;26058;-87
2022/05/11 04:24:35;;;;;;;9.48;3.15;;;;;;;17.61;35.13;99970.03;2174568;88;25787;-90
2022/05/11 04:28:11;;;;;;;7.17;3.45;;;;;;;17.70;35.09;99965.53;2168734;90;25788;-87
2022/05/11 04:31:32;;;;;;;12.70;3.17;;;;;;;17.81;35.13;99965.88;2176595;89;25921;-86
2022/05/11 04:35:11;;;;;;;5.92;2.50;;;;;;;17.90;35.09;99964.00;2198863;87;31763;-85
2022/05/11 04:38:39;;;;;;;13.65;3.85;;;;;;;18.01;35.07;99964.30;2192486;88;25808;-86
2022/05/11 04:42:45;;;;;;;13.15;3.50;;;;;;;18.09;35.04;99961.09;2213202;88;25767;-90
2022/05/11 04:46:18;;;;;;;;;;;;;;;;;;;;;
2022/05/11 04:49:53;;;;;;;6.17;2.92;;;;;;;18.32;35.16;99956.81;2199203;87;26266;-90
2022/05/11 04:53:22;;;;;;;8.30;3.30;;;;;;;18.44;35.11;99957.09;2204308;88;25768;-90
2022/05/11 04:56:57;;;;;;;7.58;3.58;;;;;;;18.58;35.15;99956.42;2212898;88;25667;-92
2022/05/11 05:00:29;;;;;;;4.33;3.27;;;;;;;18.66;35.06;99950.56;2154363;87;26367;-87
2022/05/11 05:03:52;;;;;;;4.50;2.80;;;;;;;18.73;35.00;99947.41;2174674;87;25734;-84
2022/05/11 05:07:41;;;;;;;11.55;3.17;;;;;;;18.78;35.10;99953.05;2198982;87;26332;-87
2022/05/11 05:11:40;;;;;;;6.25;2.80;;;;;;;18.85;35.17;99955.13;2190662;87;25815;-84
2022/05/11 05:19:19;;;;;;;10.38;2.87;;;;;;;18.99;35.25;99947.83;2070673;93;26277;-90
2022/05/11 05:34:43;;;;;;;12.75;2.65;;;;;;;19.31;35.57;99954.31;2003754;96;25765;-84
2022/05/11 05:38:20;;;;;;;12.13;3.40;;;;;;;19.45;35.28;99959.34;2005039;95;25789;-88
2022/05/11 05:41:44;;;;;;;13.08;2.98;;;;;;;19.57;35.19;99951.14;1997823;96;25759;-85
2022/05/11 05:45:28;;;;;;;9.40;3.10;;;;;;;19.69;35.02;99946.11;2017777;96;25912;-88
2022/05/11 05:49:13;;;;;;;19.62;2.77;;;;;;;19.80;34.87;99941.45;1987873;96;25806;-90
2022/05/11 05:52:46;;;;;;;10.95;3.47;;;;;;;19.93;34.72;99948.22;2020940;93;26638;-88
2022/05/11 06:04:03;;;;;;;8.53;2.90;;;;;;;20.33;34.43;99946.47;2051752;95;26301;-85
2022/05/11 06:07:26;;;;;;;6.03;3.10;;;;;;;20.54;34.31;99944.66;2014882;95;32906;-85
2022/05/11 06:10:53;;;;;;;12.75;2.90;;;;;;;20.73;34.17;99951.25;2077701;90;25827;-90
2022/05/11 06:14:20;;;;;;;10.93;3.50;;;;;;;20.86;34.16;99949.63;2156999;90;26164;-88
2022/05/11 06:18:17;;;;;;;7.00;2.98;;;;;;;21.07;34.06;99954.82;2129117;90;25794;-84
2022/05/11 06:21:48;;;;;;;16.80;4.45;;;;;;;21.27;34.22;99958.27;2148342;90;25830;-90
2022/05/11 06:25:46;;;;;;;13.85;3.40;;;;;;;21.45;34.38;99957.33;2145164;90;25706;-90
2022/05/11 06:29:34;;;;;;;18.73;3.92;;;;;;;21.73;34.42;99960.98;2160189;90;26314;-89
2022/05/11 06:33:09;;;;;;;10.82;2.72;;;;;;;22.03;34.36;99957.88;2167499;90;25326;-90
2022/05/11 06:36:33;;;;;;;11.00;2.52;;;;;;;22.43;34.04;99951.37;2146730;88;25583;-90
2022/05/11 06:39:55;;;;;;;13.15;2.75;;;;;;;22.92;33.75;99959.93;2192755;88;25775;-88
2022/05/11 06:44:03;;;;;;;10.78;2.67;;;;;;;23.47;33.41;99962.01;2185809;88;26107;-84
2022/05/11 06:47:26;;;;;;;15.83;3.40;;;;;;;23.96;32.68;99950.91;2147038;90;26321;-83
2022/05/11 06:50:53;;;;;;;17.17;3.65;;;;;;;24.54;31.82;99956.23;2145250;90;25688;-84
2022/05/11 07:02:12;;;;;;;18.65;3.35;;;;;;;26.33;29.91;99952.31;2141668;91;25768;-82
2022/05/11 07:05:53;;;;;;;16.82;4.10;;;;;;;27.09;29.04;99956.52;2134869;90;25693;-82
2022/05/11 07:09:12;;;;;;;20.75;3.58;;;;;;;27.95;28.26;99947.14;2142062;91;25737;-83
2022/05/11 07:12:38;;;;;;;9.03;3.58;;;;;;;28.87;27.39;99945.92;2136154;91;25853;-83
2022/05/11 07:16:25;;;;;;;17.25;5.20;;;;;;;29.77;26.62;99947.17;2097947;91;25759;-84
2022/05/11 07:20:37;;;;;;;15.65;3.12;;;;;;;30.53;25.70;99948.09;2080252;93;25401;-83
2022/05/11 07:24:05;;;;;;;20.48;2.90;;;;;;;31.23;25.02;99950.56;2082176;92;25702;-77
2022/05/11 07:27:44;;;;;;;21.10;3.10;;;;;;;31.79;22.98;99946.70;2075304;93;26186;-75
2022/05/11 07:31:10;;;;;;;18.52;3.55;;;;;;;31.23;22.76;99945.19;2097611;91;25766;-77
2022/05/11 07:34:34;;;;;;;13.83;3.60;;;;;;;30.81;22.35;99936.41;2092720;92;26443;-77
2022/05/11 07:38:13;;;;;;;11.10;3.47;;;;;;;30.30;22.75;99926.74;2099647;92;25711;-77
2022/05/11 07:41:38;;;;;;;14.40;3.20;;;;;;;30.11;23.23;99932.93;2099353;90;25954;-77
2022/05/11 07:45:17;;;;;;;24.18;3.67;;;;;;;30.12;23.66;99924.75;2188720;88;25847;-77
2022/05/11 07:48:37;;;;;;;12.20;3.12;;;;;;;29.97;23.32;99914.12;2170206;89;25746;-77
2022/05/11 07:52:09;;;;;;;17.02;2.98;;;;;;;29.53;24.74;99920.00;2196608;88;25780;-77
2022/05/11 08:03:42;;;;;;;18.62;3.33;;;;;;;29.39;25.06;99914.59;2107706;91;25909;-76
2022/05/11 08:07:22;;;;;;;9.55;3.58;;;;;;;29.48;24.91;99905.12;2127980;91;25989;-79
2022/05/11 08:11:17;;;;;;;13.08;3.67;;;;;;;29.27;25.07;99899.27;2133645;91;25820;-76
2022/05/11 08:15:11;;;;;;;12.10;3.65;;;;;;;29.46;25.29;99894.45;2135439;90;25664;-75
2022/05/11 08:18:42;;;;;;;15.58;3.17;;;;;;;29.14;25.15;99897.33;2162297;90;26111;-72
2022/05/11 08:22:05;;;;;;;17.48;4.47;;;;;;;29.17;25.60;99894.94;2158973;90;25795;-73
2022/05/11 08:25:29;;;;;;;13.80;3.52;;;;;;;28.80;25.78;99893.10;2164695;90;25708;-73
2022/05/11 08:28:53;;;;;;;20.88;4.28;;;;;;;28.39;26.42;99890.19;2165278;90;26355;-73
2022/05/11 08:36:09;;;;;;;16.17;3.08;;;;;;;27.95;27.11;99882.84;2201477;87;25427;-75
2022/05/11 08:39:30;;;;;;;11.83;2.72;;;;;;;27.77;27.27;99892.75;2182856;89;25858;-73
2022/05/11 08:42:59;;;;;;;16.45;3.40;;;;;;;27.80;27.73;99900.61;2200895;87;25851;-76
2022/05/11 08:46:47;;;;;;;12.47;3.65;;;;;;;28.18;27.47;99894.45;2202720;87;25761;-72
2022/05/11 08:50:34;;;;;;;;;;;;;;;28.36;27.46;99891.67;2196554;88;26369;-74
2022/05/11 08:54:31;;;;;;;10.08;3.50;;;;;;;28.54;27.37;99895.12;2184162;89;26035;-76
2022/05/11 08:58:07;;;;;;;14.13;3.45;;;;;;;28.94;27.15;99892.27;2261897;86;25743;-72
2022/05/11 09:01:54;;;;;;;12.33;3.30;;;;;;;28.99;26.83;99900.03;2262073;86;25785;-74
2022/05/11 09:05:35;;;;;;;14.25;3.05;;;;;;;29.01;26.77;99899.03;2258211;84;25831;-72
2022/05/11 09:09:02;;;;;;;8.70;3.02;;;;;;;29.32;26.53;99899.83;2247340;86;25766;-74
2022/05/11 09:12:24;;;;;;;25.23;3.37;;;;;;;29.22;26.56;99892.81;2241148;86;25676;-77
2022/05/11 09:16:01;;;;;;;10.75;2.72;;;;;;;28.64;27.07;99877.53;2208591;86;25926;-75
2022/05/11 09:20:02;;;;;;;17.62;4.08;;;;;;;28.64;27.38;99881.07;2199327;87;25988;-76
2022/05/11 09:23:36;;;;;;;13.93;2.67;;;;;;;28.81;27.43;99884.58;2135403;90;26047;-75
2022/05/11 09:27:11;;;;;;;10.60;3.17;;;;;;;29.22;27.64;99891.95;2136104;91;25838;-76
2022/05/11 09:30:49;;;;;;;12.88;3.00;;;;;;;29.34;27.09;99885.36;2124063;92;26041;-75
2022/05/11 09:34:35;;;;;;;20.00;3.30;;;;;;;29.47;27.32;99888.63;2132289;90;25762;-78
2022/05/11 09:38:25;;;;;;;15.25;2.85;;;;;;;29.87;26.91;99889.69;2096384;93;26066;-74
2022/05/11 09:42:16;;;;;;;7.00;2.55;;;;;;;30.51;26.49;99891.31;2121667;90;25704;-78
2022/05/11 09:45:49;;;;;;;10.53;3.33;;;;;;;31.37;26.02;99897.60;2114497;93;25720;-75
2022/05/11 09:49:19;;;;;;;7.90;3.37;;;;;;;31.96;25.48;99897.39;2122364;92;26019;-73
2022/05/11 09:52:52;;;;;;;7.62;3.15;;;;;;;32.37;25.06;99890.76;2131376;91;25800;-74
2022/05/11 09:56:34;;;;;;;8.33;3.85;;;;;;;32.51;24.33;99891.09;2124752;91;25334;-76
2022/05/11 10:00:29;;;;;;;6.92;2.60;;;;;;;32.63;23.71;99883.89;2123766;91;25721;-74
2022/05/11 10:04:11;;;;;;;3.72;3.10;;;;;;;32.58;23.38;99876.66;2117165;93;25737;-75
2022/05/11 10:07:54;;;;;;;9.80;3.65;;;;;;;32.81;23.82;99873.05;2125267;92;25709;-74
2022/05/11 10:11:47;;;;;;;17.98;3.90;;;;;;;33.15;23.74;99870.45;2116943;93;25718;-75
2022/05/11 10:23:24;;;;;;;6.75;2.20;;;;;;;32.86;22.83;99856.48;2166711;90;32618;-75
2022/05/11 10:27:09;;;;;;;5.05;3.80;;;;;;;33.20;23.13;99852.52;2181896;90;25713;-75
2022/05/11 10:30:56;;;;;;;7.20;2.65;;;;;;;33.51;23.31;99850.45;2203516;88;25844;-73
2022/05/11 10:35:03;;;;;;;9.30;2.42;;;;;;;33.95;23.28;99846.47;2207493;88;25664;-73
2022/05/11 10:39:26;;;;;;;9.65;2.42;;;;;;;33.93;22.54;99832.23;2205500;88;26135;-73
2022/05/11 10:43:35;;;;;;;4.55;2.75;;;;;;;33.97;22.31;99850.77;2196687;88;25310;-73
2022/05/11 10:47:35;;;;;;;6.92;2.50;;;;;;;33.52;22.17;99855.40;2172750;88;26040;-75
2022/05/11 10:51:26;;;;;;;4.70;2.17;;;;;;;33.42;22.83;99843.58;2185240;89;25720;-73
2022/05/11 10:55:18;;;;;;;4.10;2.12;;;;;;;33.63;22.83;99843.22;2187069;89;25744;-73
2022/05/11 10:59:01;;;;;;;4.05;2.47;;;;;;;33.93;22.60;99840.34;2192503;88;25732;-73
2022/05/11 11:03:03;;;;;;;9.68;2.87;;;;;;;33.75;22.10;99840.87;2144208;90;25865;-77
2022/05/11 11:07:14;;;;;;;7.30;2.60;;;;;;;33.67;22.28;99831.66;2139054;90;25909;-74
2022/05/11 11:10:55;;;;;;;12.47;2.40;;;;;;;33.69;22.67;99834.61;2166179;89;25725;-72
2022/05/11 11:14:39;;;;;;;5.50;2.15;;;;;;;33.54;22.25;99826.39;2162300;89;25717;-75
2022/05/11 11:18:15;;;;;;;4.85;2.20;;;;;;;33.41;22.32;99816.16;2174704;90;25734;-73
2022/05/11 11:21:48;;;;;;;6.35;2.60;;;;;;;33.21;22.53;99815.95;2167493;89;25747;-74
2022/05/11 11:25:26;;;;;;;5.80;2.12;;;;;;;33.50;22.60;99808.70;2179003;90;26011;-74
2022/05/11 11:28:50;;;;;;;;;;;;;;;33.75;22.58;99809.78;2124130;91;25881;-74
2022/05/11 11:32:30;;;;;;;4.62;2.08;;;;;;;33.70;22.36;99802.53;2047969;95;25804;-74
2022/05/11 11:36:33;;;;;;;5.15;2.17;;;;;;;33.63;22.47;99797.77;2063441;93;25681;-77
2022/05/11 11:39:58;;;;;;;5.90;2.50;;;;;;;33.47;22.47;99788.16;2087843;93;25793;-77
2022/05/11 11:43:48;;;;;;;3.77;2.05;;;;;;;33.34;22.18;99786.08;2075901;94;26232;-77
2022/05/11 11:47:54;;;;;;;2.10;1.85;;;;;;;33.16;22.26;99783.02;2072382;93;26614;-77
2022/05/11 11:55:59;;;;;;;4.67;1.82;;;;;;;32.21;22.33;99784.98;2016391;97;25865;-75
2022/05/11 11:59:38;;;;;;;4.97;3.02;;;;;;;31.80;22.81;99771.91;2011050;97;25787;-75
2022/05/11 12:03:04;;;;;;;8.40;2.80;;;;;;;31.71;23.18;99776.98;2020966;96;26060;-75
2022/05/11 12:17:53;;;;;;;6.50;2.17;;;;;;;31.06;24.23;99771.84;2003828;95;25865;-74
2022/05/11 12:22:04;;;;;;;3.98;2.83;;;;;;;30.87;24.49;99764.19;2018692;96;25907;-74
2022/05/11 12:25:30;;;;;;;6.62;2.60;;;;;;;30.79;24.66;99760.70;2101144;91;26329;-73
2022/05/11 12:29:54;;;;;;;6.92;2.62;;;;;;;31.07;24.89;99757.39;2137034;92;25760;-75
2022/05/11 12:32:31;;;;;;;7.10;2.40;;;;;;;31.33;24.97;99743.92;2058726;93;25971;-74
2022/05/11 12:36:05;;;;;;;9.03;3.40;;;;;;;31.59;24.96;99745.57;2072444;94;25903;-74
2022/05/11 12:39:46;;;;;;;5.85;2.98;;;;;;;31.49;24.61;99745.39;2039756;94;25699;-74
2022/05/11 12:43:35;;;;;;;9.13;3.05;;;;;;;31.31;24.72;99741.78;2098841;92;25848;-74
2022/05/11 12:47:25;;;;;;;3.52;2.37;;;;;;;31.18;24.68;99731.89;2144831;90;25864;-74
2022/05/11 12:51:18;;;;;;;3.87;2.47;;;;;;;30.84;24.76;99732.11;2155185;89;25826;-74
2022/05/11 12:54:39;;;;;;;6.30;2.58;;;;;;;30.77;25.23;99737.55;2140594;89;26952;-73
2022/05/11 12:58:08;;;;;;;8.70;2.70;;;;;;;30.85;25.44;99735.20;2136851;91;25967;-74
2022/05/11 13:01:46;;;;;;;3.00;2.67;;;;;;;31.00;25.42;99731.89;2148413;90;26035;-75
2022/05/11 13:05:16;;;;;;;3.85;2.75;;;;;;;30.98;25.50;99739.20;2144182;91;25776;-74
2022/05/11 13:08:48;;;;;;;;;;;;;;;30.97;25.27;99732.10;2151509;91;25835;-74
2022/05/11 13:12:28;;;;;;;11.63;4.08;;;;;;;30.97;25.73;99730.27;2186766;86;25759;-73
2022/05/11 13:16:11;;;;;;;5.65;2.52;;;;;;;30.72;25.24;99723.05;2197863;88;25863;-73
2022/05/11 13:19:36;;;;;;;4.70;2.75;;;;;;;30.55;25.99;99725.59;2185319;89;25271;-74
2022/05/11 13:23:05;;;;;;;8.80;2.75;;;;;;;30.55;26.15;99724.24;2208879;89;25794;-74
2022/05/11 13:26:45;;;;;;;9.08;2.85;;;;;;;30.64;26.14;99725.41;2102066;91;25804;-74
2022/05/11 13:30:53;;;;;;;;;;;;;;;;;;;;;
2022/05/11 13:34:45;;;;;;;11.80;3.05;;;;;;;30.78;25.56;99713.70;2124988;91;26552;-74
2022/05/11 13:38:18;;;;;;;9.60;3.85;;;;;;;30.64;25.97;99712.45;2101762;92;26379;-75
2022/05/11 13:42:18;;;;;;;3.72;3.00;;;;;;;30.64;26.23;99702.54;2146237;90;26213;-74
2022/05/11 13:46:15;;;;;;;13.08;2.90;;;;;;;30.61;26.17;99704.59;2148708;89;25757;-73
2022/05/11 13:49:43;;;;;;;14.47;2.60;;;;;;;30.61;26.16;99698.72;2161862;88;25900;-75
2022/05/11 13:53:28;;;;;;;10.40;3.33;;;;;;;30.67;25.90;99696.09;2180889;89;25996;-73
2022/05/11 13:57:44;;;;;;;5.35;2.90;;;;;;;30.85;25.75;99692.59;2168053;89;25856;-73
2022/05/11 14:01:15;;;;;;;3.47;2.37;;;;;;;30.98;25.54;99692.98;2142101;90;25990;-76
2022/05/11 14:04:39;;;;;;;5.65;2.83;;;;;;;31.02;25.52;99694.96;2140120;90;25886;-74
2022/05/11 14:08:12;;;;;;;3.22;2.92;;;;;;;30.89;25.49;99684.70;2150395;90;25899;-74
2022/05/11 14:11:52;;;;;;;4.40;2.98;;;;;;;30.70;25.68;99683.77;2100389;92;26503;-75
2022/05/11 14:15:32;;;;;;;11.28;2.47;;;;;;;30.35;25.83;99681.73;2123772;91;25419;-75
2022/05/11 14:18:54;;;;;;;6.58;2.27;;;;;;;30.21;26.10;99676.47;2121383;92;25783;-74
2022/05/11 14:22:29;;;;;;;6.00;2.45;;;;;;;30.18;26.10;99674.84;2110185;90;25819;-76
2022/05/11 14:26:03;;;;;;;7.87;2.87;;;;;;;30.04;26.10;99665.50;2123998;90;25658;-75
2022/05/11 14:29:55;;;;;;;6.85;2.40;;;;;;;29.79;26.73;99673.86;2148131;90;25788;-75
2022/05/11 14:33:17;;;;;;;7.35;2.20;;;;;;;29.69;27.06;99659.33;2144960;90;25896;-74
2022/05/11 14:36:55;;;;;;;8.78;3.20;;;;;;;29.50;27.08;99661.02;2150459;90;25853;-75
2022/05/11 14:40:31;;;;;;;9.63;2.80;;;;;;;29.23;27.69;99651.62;2168279;88;25754;-74
2022/05/11 14:43:59;;;;;;;3.00;2.15;;;;;;;29.20;27.72;99654.98;2116461;92;25846;-74
2022/05/11 14:47:17;;;;;;;7.17;2.58;;;;;;;29.12;27.94;99644.23;2117034;91;25941;-74
2022/05/11 14:50:51;;;;;;;;;;;;;;;;;;;;;
2022/05/11 14:54:21;;;;;;;7.45;2.52;;;;;;;29.09;28.58;99640.44;2113952;92;26042;-73
2022/05/11 15:01:59;;;;;;;8.75;2.55;;;;;;;29.17;28.94;99643.96;2080452;93;25880;-75
2022/05/11 15:05:20;;;;;;;9.85;2.70;;;;;;;28.88;28.67;99646.66;2049653;96;34977;-73
2022/05/11 15:08:51;;;;;;;3.42;2.90;;;;;;;28.77;28.89;99642.46;2103847;92;25793;-73
2022/05/11 15:16:00;;;;;;;16.15;2.77;;;;;;;28.80;29.30;99642.75;2103793;92;25660;-74
2022/05/11 15:19:22;;;;;;;7.03;2.27;;;;;;;28.70;29.13;99631.74;2101981;92;25776;-75
2022/05/11 15:22:46;;;;;;;5.67;2.77;;;;;;;28.86;29.04;99627.61;2089551;92;26513;-74
2022/05/11 15:26:10;;;;;;;11.70;3.00;;;;;;;28.71;29.07;99625.41;2091059;93;25726;-73
2022/05/11 15:29:35;;;;;;;9.18;2.58;;;;;;;28.68;29.29;99621.09;2103783;92;25708;-73
2022/05/11 15:33:00;;;;;;;10.03;2.72;;;;;;;28.63;29.78;99619.20;2111703;92;25491;-73
2022/05/11 15:36:44;;;;;;;8.50;2.47;;;;;;;28.70;29.39;99616.50;2136826;90;25805;-74
2022/05/11 15:40:08;;;;;;;3.10;2.45;;;;;;;28.58;28.96;99614.59;2198214;85;26726;-73
2022/05/11 15:43:47;;;;;;;9.95;2.65;;;;;;;28.51;28.96;99616.42;2284246;85;26376;-73
2022/05/11 15:47:08;;;;;;;;;;;;;;;28.31;28.95;99608.25;2286720;85;25709;-73
2022/05/11 15:50:52;;;;;;;9.50;2.17;;;;;;;28.25;29.11;99621.09;2261892;85;25680;-74
2022/05/11 15:54:43;;;;;;;7.78;3.15;;;;;;;28.12;29.01;99612.08;2237655;85;25607;-74
2022/05/11 15:58:16;;;;;;;;;;;;;;;;;;;;;
2022/05/11 16:01:32;;;;;;;3.60;2.80;;;;;;;28.07;29.23;99606.13;2174493;89;25762;-74
2022/05/11 16:04:54;;;;;;;13.45;2.72;;;;;;;27.87;29.31;99591.73;2147736;88;25788;-74
2022/05/11 16:08:18;;;;;;;8.13;3.15;;;;;;;27.80;29.49;99593.92;2161702;88;25390;-74
2022/05/11 16:11:53;;;;;;;4.78;2.72;;;;;;;27.71;29.69;99585.95;2173948;88;25892;-72
2022/05/11 16:15:29;;;;;;;7.83;2.72;;;;;;;27.68;29.73;99592.83;2149204;89;43459;-74
2022/05/11 16:23:15;;;;;;;7.37;2.30;;;;;;;27.51;29.99;99584.94;2159214;88;25863;-74
2022/05/11 16:26:46;;;;;;;15.40;2.87;;;;;;;27.54;30.10;99583.42;2116665;90;25800;-73
2022/05/11 16:30:14;;;;;;;7.40;3.15;;;;;;;27.46;30.04;99579.84;2127659;89;25707;-73
2022/05/11 16:33:38;;;;;;;10.80;2.75;;;;;;;27.39;30.11;99574.94;2160662;86;26010;-73
2022/05/11 16:36:59;;;;;;;13.58;2.95;;;;;;;27.35;30.15;99573.41;2188855;87;26395;-74
2022/05/11 16:40:33;;;;;;;8.35;2.83;;;;;;;27.24;30.21;99577.57;2213448;85;25703;-74
2022/05/11 16:43:57;;;;;;;9.03;2.83;;;;;;;27.14;30.29;99575.52;2226127;85;25861;-77
2022/05/11 16:47:21;;;;;;;3.95;3.22;;;;;;;27.08;30.51;99582.90;2218366;85;25744;-74
2022/05/11 16:50:50;;;;;;;4.28;2.85;;;;;;;27.02;30.77;99573.87;2207891;87;25740;-75
2022/05/11 16:54:18;;;;;;;12.90;2.95;;;;;;;26.97;30.82;99572.44;2219687;87;25667;-74
2022/05/11 16:57:50;;;;;;;6.23;3.03;;;;;;;26.91;30.88;99577.66;2215503;86;25943;-74
2022/05/11 17:01:11;;;;;;;14.15;3.20;;;;;;;26.85;31.21;99569.48;2252556;86;25864;-75
2022/05/11 17:04:32;;;;;;;5.17;2.65;;;;;;;26.83;31.43;99567.84;2279378;84;25796;-80
2022/05/11 17:11:53;;;;;;;6.95;3.70;;;;;;;26.78;31.50;99572.13;2132123;91;25909;-77
2022/05/11 17:15:27;;;;;;;9.15;3.02;;;;;;;26.71;31.59;99570.75;2088246;91;25770;-78
2022/05/11 17:19:07;;;;;;;;;;;;;;;;;;;;;
2022/05/11 17:22:28;;;;;;;11.63;3.08;;;;;;;26.63;31.96;99564.98;2084320;92;25912;-77
2022/05/11 17:26:05;;;;;;;11.68;3.60;;;;;;;26.57;32.03;99570.66;2066602;93;25290;-76
2022/05/11 17:29:38;;;;;;;7.53;3.02;;;;;;;26.55;32.08;99567.20;2092726;91;25853;-77
2022/05/11 17:33:11;;;;;;;14.20;3.62;;;;;;;26.51;32.39;99566.98;2080234;93;25739;-76
2022/05/11 17:36:36;;;;;;;14.63;3.60;;;;;;;26.49;32.48;99563.04;2018082;96;25463;-79
2022/05/11 17:39:57;;;;;;;9.40;3.20;;;;;;;26.45;32.50;99569.95;1992545;96;25826;-77
2022/05/11 17:43:23;;;;;;;10.85;3.60;;;;;;;26.40;32.78;99565.35;2018172;96;25974;-76
2022/05/11 17:46:52;;;;;;;11.10;3.70;;;;;;;26.36;32.80;99568.19;2039485;96;25848;-77
2022/05/11 17:50:18;;;;;;;19.42;3.80;;;;;;;26.25;33.06;99572.38;2006475;95;26327;-77
2022/05/11 17:53:45;;;;;;;10.55;4.00;;;;;;;26.17;33.24;99572.80;2025716;95;26470;-78
2022/05/11 17:57:16;;;;;;;17.37;4.20;;;;;;;26.10;33.39;99572.25;2037839;95;25731;-77
2022/05/11 18:00:37;;;;;;;11.83;3.50;;;;;;;26.13;33.50;99572.58;1986753;97;25807;-77
2022/05/11 18:04:21;;;;;;;9.43;4.35;;;;;;;26.08;33.73;99579.48;2002884;97;25949;-77
2022/05/11 18:07:54;;;;;;;9.08;3.95;;;;;;;26.06;33.71;99585.39;2019248;93;25934;-77
2022/05/11 18:11:47;;;;;;;15.13;4.15;;;;;;;25.99;33.97;99588.48;2046596;96;25788;-78
2022/05/11 18:15:25;;;;;;;19.77;5.20;;;;;;;25.85;34.22;99588.72;2050137;95;25428;-82
2022/05/11 18:18:51;;;;;;;16.23;4.80;;;;;;;25.70;34.42;99590.80;2028240;96;25911;-78
2022/05/11 18:22:26;;;;;;;;;;;;;;;;;;;;;
2022/05/11 18:25:43;;;;;;;25.50;5.20;;;;;;;25.43;35.11;99591.26;2039906;96;26085;-75
2022/05/11 18:29:06;;;;;;;24.07;4.95;;;;;;;25.34;35.30;99584.18;2099573;91;25852;-77
2022/05/11 18:32:33;;;;;;;15.38;4.10;;;;;;;25.29;35.28;99584.42;2131803;91;25967;-75
2022/05/11 18:35:56;;;;;;;15.00;5.05;;;;;;;25.24;35.54;99582.44;2152996;90;26244;-77
2022/05/11 18:39:17;;;;;;;19.37;4.92;;;;;;;25.16;35.71;99588.16;2110734;92;25794;-76
2022/05/11 18:42:44;;;;;;;36.53;5.78;;;;;;;25.08;35.90;99586.80;2121091;91;25852;-78
2022/05/11 18:46:25;;;;;;;27.13;5.62;;;;;;;25.02;35.97;99587.95;2111478;92;25396;-79
2022/05/11 18:49:59;;;;;;;21.50;5.67;;;;;;;24.93;36.27;99585.71;2118068;91;26129;-75
2022/05/11 18:53:32;;;;;;;24.57;5.28;;;;;;;24.84;36.43;99580.38;2098933;92;26076;-75
2022/05/11 18:56:59;;;;;;;12.47;5.05;;;;;;;24.78;36.57;99587.33;2132200;89;25792;-76
2022/05/11 19:00:43;;;;;;;21.15;4.95;;;;;;;24.72;36.83;99581.80;2191818;88;25740;-78
2022/05/11 19:04:09;;;;;;;21.42;5.25;;;;;;;24.62;36.81;99583.65;2168646;88;26083;-75